Time;durP1;ratioP1;P1;durP2;ratioP2;P2;SDS_P1;SDS_P2;PMS_P1;PMS_P2;Temp;Humidity;BMP_temperature;BMP_pressure;BME280_temperature;BME280_humidity;BME280_pressure;Samples;Min_cycle;Max_cycle;Signal;HPM_P1;HPM_P2
2022/05/14 00:01:13;;;;;;;7.73;2.70;;;13.50;99.90;;;;;;5019148;28;20744;-53
2022/05/14 00:03:42;;;;;;;3.53;1.57;;;13.60;99.90;;;;;;5021395;28;20707;-53
2022/05/14 00:06:17;;;;;;;3.17;1.30;;;13.30;99.90;;;;;;5020326;28;20204;-53
2022/05/14 00:08:44;;;;;;;5.10;1.40;;;13.40;99.90;;;;;;5025555;28;20275;-52
2022/05/14 00:13:57;;;;;;;3.37;1.50;;;13.20;99.90;;;;;;5031100;28;20236;-50
2022/05/14 00:16:25;;;;;;;5.47;1.50;;;13.30;99.90;;;;;;5027563;28;20244;-51
2022/05/14 00:18:53;;;;;;;6.27;1.53;;;13.30;99.90;;;;;;5021703;28;20214;-52
2022/05/14 00:21:22;;;;;;;3.53;1.53;;;13.30;99.90;;;;;;5029294;28;20751;-51
2022/05/14 00:23:49;;;;;;;6.40;1.80;;;13.10;99.90;;;;;;5026314;28;20233;-51
2022/05/14 00:26:17;;;;;;;5.70;1.53;;;13.00;99.90;;;;;;5024813;28;20299;-52
2022/05/14 00:28:44;;;;;;;4.33;1.30;;;13.10;99.90;;;;;;5023013;28;20335;-51
2022/05/14 00:31:11;;;;;;;5.53;1.43;;;13.10;99.90;;;;;;5025747;28;20596;-52
2022/05/14 00:33:38;;;;;;;6.27;1.70;;;13.00;99.90;;;;;;5023322;28;20565;-52
2022/05/14 00:36:05;;;;;;;3.70;1.50;;;13.00;99.90;;;;;;5023654;28;20712;-52
2022/05/14 00:38:32;;;;;;;6.57;1.67;;;13.00;99.90;;;;;;5012670;28;20235;-52
2022/05/14 00:41:01;;;;;;;5.80;1.67;;;12.90;99.90;;;;;;5027710;28;20339;-52
2022/05/14 00:43:29;;;;;;;8.87;1.93;;;12.90;99.90;;;;;;5028184;28;20669;-52
2022/05/14 00:46:10;;;;;;;8.40;1.60;;;12.90;99.90;;;;;;5029320;28;20197;-52
2022/05/14 00:48:40;;;;;;;3.73;1.60;;;13.00;99.90;;;;;;5022563;28;20197;-52
2022/05/14 00:51:13;;;;;;;5.47;1.37;;;13.00;99.90;;;;;;5036886;28;20243;-52
2022/05/14 00:53:45;;;;;;;6.50;2.23;;;13.00;99.90;;;;;;5019784;28;20253;-52
2022/05/14 00:56:16;;;;;;;5.97;1.63;;;13.00;99.90;;;;;;5029851;28;20244;-52
2022/05/14 00:58:46;;;;;;;7.77;1.97;;;12.90;99.90;;;;;;5023129;28;20303;-55
2022/05/14 01:01:13;;;;;;;7.83;1.80;;;12.90;99.90;;;;;;5027513;28;20769;-51
2022/05/14 01:03:41;;;;;;;5.07;1.73;;;12.90;99.90;;;;;;5029765;28;20670;-56
2022/05/14 01:06:11;;;;;;;5.40;1.67;;;13.00;99.90;;;;;;5033393;28;20508;-54
2022/05/14 01:08:39;;;;;;;4.80;1.53;;;12.90;99.90;;;;;;5019757;28;20881;-53
2022/05/14 01:11:06;;;;;;;4.70;1.90;;;12.80;99.90;;;;;;5024334;28;20232;-53
2022/05/14 01:13:33;;;;;;;4.30;1.60;;;12.70;99.90;;;;;;5022986;28;20291;-52
2022/05/14 01:16:02;;;;;;;5.70;1.70;;;12.60;99.90;;;;;;5024119;28;20238;-53
2022/05/14 01:18:32;;;;;;;4.90;1.60;;;12.70;99.90;;;;;;5028293;28;20205;-53
2022/05/14 01:21:08;;;;;;;5.07;1.90;;;12.60;99.90;;;;;;5024756;28;20319;-54
2022/05/14 01:26:27;;;;;;;4.97;1.90;;;12.50;99.90;;;;;;5019190;28;20234;-54
2022/05/14 01:26:30;;;;;;;5.60;1.70;;;12.50;99.90;;;;;;5028612;28;20281;-53
2022/05/14 01:29:00;;;;;;;3.50;1.60;;;12.50;99.90;;;;;;5024094;28;20660;-52
2022/05/14 01:31:27;;;;;;;6.17;1.70;;;12.40;99.90;;;;;;5029029;28;20293;-52
2022/05/14 01:33:58;;;;;;;3.83;1.70;;;12.20;99.90;;;;;;5023567;28;20232;-52
2022/05/14 01:36:25;;;;;;;5.40;1.70;;;12.20;99.90;;;;;;5023962;28;20235;-54
2022/05/14 01:38:55;;;;;;;6.57;1.60;;;12.30;99.90;;;;;;5022520;28;20697;-52
2022/05/14 01:41:22;;;;;;;7.03;1.70;;;12.30;99.90;;;;;;5025301;28;20552;-53
2022/05/14 01:43:49;;;;;;;6.87;1.80;;;12.40;99.90;;;;;;5030114;28;20781;-53
2022/05/14 01:46:17;;;;;;;6.30;1.77;;;12.30;99.90;;;;;;5024964;28;20401;-53
2022/05/14 01:48:44;;;;;;;5.07;1.80;;;12.20;99.90;;;;;;5026217;28;20279;-55
2022/05/14 01:51:11;;;;;;;5.33;2.13;;;12.10;99.90;;;;;;5027266;28;20265;-52
2022/05/14 01:53:38;;;;;;;2.97;1.83;;;12.10;99.90;;;;;;5021140;28;20736;-53
2022/05/14 01:56:05;;;;;;;7.03;2.80;;;11.90;99.90;;;;;;5026598;28;20761;-53
2022/05/14 01:58:37;;;;;;;8.47;2.20;;;12.00;99.90;;;;;;5026199;28;20374;-54
2022/05/14 02:01:23;;;;;;;5.07;1.23;;;12.20;99.90;;;;;;5019487;28;20222;-53
2022/05/14 02:03:55;;;;;;;4.13;1.60;;;12.10;99.90;;;;;;5019499;28;20200;-53
2022/05/14 02:06:23;;;;;;;8.97;2.40;;;12.20;99.90;;;;;;5027980;28;20292;-52
2022/05/14 02:08:50;;;;;;;3.27;1.80;;;12.10;99.90;;;;;;5022888;28;20299;-52
2022/05/14 02:11:18;;;;;;;5.03;1.97;;;12.20;99.90;;;;;;5023673;28;20585;-52
2022/05/14 02:13:47;;;;;;;6.27;1.90;;;12.30;99.90;;;;;;5023293;28;20214;-53
2022/05/14 02:16:14;;;;;;;6.47;2.23;;;12.20;99.90;;;;;;5033171;28;20407;-53
2022/05/14 02:18:40;;;;;;;6.40;2.30;;;12.00;99.90;;;;;;5029302;28;20211;-53
2022/05/14 02:21:08;;;;;;;7.57;2.20;;;12.10;99.90;;;;;;5028337;28;20876;-53
2022/05/14 02:23:37;;;;;;;5.17;1.63;;;12.00;99.90;;;;;;5024692;28;20217;-52
2022/05/14 02:26:07;;;;;;;5.77;2.27;;;12.10;99.90;;;;;;5027143;28;20228;-52
2022/05/14 02:28:34;;;;;;;4.97;2.00;;;12.20;99.90;;;;;;5033422;28;20266;-53
2022/05/14 02:31:01;;;;;;;6.90;2.17;;;12.00;99.90;;;;;;5027972;28;20663;-52
2022/05/14 02:33:28;;;;;;;5.33;2.00;;;12.00;99.90;;;;;;5034890;28;20259;-55
2022/05/14 02:35:55;;;;;;;6.53;2.00;;;12.00;99.90;;;;;;5028089;28;20288;-53
2022/05/14 02:38:22;;;;;;;5.37;2.10;;;12.00;99.90;;;;;;5031012;28;20288;-53
2022/05/14 02:40:48;;;;;;;5.33;2.27;;;12.10;99.90;;;;;;5023530;28;20447;-53
2022/05/14 02:43:15;;;;;;;5.17;2.13;;;12.00;99.90;;;;;;5029848;28;20637;-53
2022/05/14 02:45:42;;;;;;;7.17;2.33;;;11.90;99.90;;;;;;5030937;28;20247;-53
2022/05/14 02:48:10;;;;;;;6.43;2.20;;;12.00;99.90;;;;;;5033485;28;20271;-52
2022/05/14 02:50:38;;;;;;;6.60;2.30;;;11.80;99.90;;;;;;5029244;28;20632;-52
2022/05/14 02:53:05;;;;;;;7.70;2.33;;;11.80;99.90;;;;;;5035344;28;20291;-52
2022/05/14 02:55:32;;;;;;;5.63;2.03;;;11.90;99.90;;;;;;5030172;28;20269;-52
2022/05/14 02:57:59;;;;;;;5.47;2.43;;;11.80;99.90;;;;;;5026416;28;20295;-52
2022/05/14 03:00:26;;;;;;;6.47;2.30;;;12.00;99.90;;;;;;5023561;28;21683;-52
2022/05/14 03:02:53;;;;;;;7.17;2.50;;;12.00;99.90;;;;;;5029690;28;20278;-52
2022/05/14 03:05:23;;;;;;;12.60;3.10;;;12.00;99.90;;;;;;5027905;28;20196;-52
2022/05/14 03:07:50;;;;;;;8.13;2.47;;;11.80;99.90;;;;;;5029884;28;20666;-52
2022/05/14 03:10:17;;;;;;;5.23;2.40;;;11.80;99.90;;;;;;5031769;28;20724;-52
2022/05/14 03:12:44;;;;;;;6.60;2.57;;;11.70;99.90;;;;;;5025362;28;20205;-52
2022/05/14 03:15:12;;;;;;;8.43;2.67;;;11.80;99.90;;;;;;5024820;28;20235;-51
2022/05/14 03:17:39;;;;;;;5.20;2.33;;;11.70;99.90;;;;;;5027711;28;20338;-52
2022/05/14 03:20:09;;;;;;;8.67;2.67;;;11.80;99.90;;;;;;5024449;28;20713;-52
2022/05/14 03:22:38;;;;;;;4.93;2.70;;;11.90;99.90;;;;;;5026435;28;20253;-52
2022/05/14 03:25:07;;;;;;;6.30;2.70;;;11.70;99.90;;;;;;5025843;28;20614;-52
2022/05/14 03:27:34;;;;;;;6.30;3.07;;;11.80;99.90;;;;;;5027188;28;20560;-51
2022/05/14 03:30:01;;;;;;;7.03;3.33;;;11.70;99.90;;;;;;5029949;28;20659;-51
2022/05/14 03:32:28;;;;;;;7.83;3.20;;;11.70;99.90;;;;;;5031317;28;20234;-52
2022/05/14 03:34:55;;;;;;;7.73;3.37;;;11.70;99.90;;;;;;5027133;28;20290;-51
2022/05/14 03:37:25;;;;;;;6.87;3.03;;;11.90;99.90;;;;;;5032304;28;20204;-55
2022/05/14 03:39:52;;;;;;;8.47;3.63;;;11.80;99.90;;;;;;5022172;28;20204;-57
2022/05/14 03:42:19;;;;;;;4.70;2.80;;;11.90;99.90;;;;;;5028756;28;20237;-53
2022/05/14 03:44:48;;;;;;;6.87;3.20;;;11.90;99.90;;;;;;5024599;28;20224;-52
2022/05/14 03:47:15;;;;;;;9.67;3.47;;;11.70;99.90;;;;;;5030151;28;20209;-53
2022/05/14 03:49:43;;;;;;;10.03;3.77;;;11.60;99.90;;;;;;5025805;28;20604;-51
2022/05/14 03:52:10;;;;;;;8.13;3.37;;;11.70;99.90;;;;;;5026812;28;20215;-52
2022/05/14 03:54:38;;;;;;;11.07;3.53;;;11.50;99.90;;;;;;5027978;28;20243;-53
2022/05/14 03:57:06;;;;;;;5.83;3.90;;;11.50;99.90;;;;;;5029367;28;20235;-54
2022/05/14 03:59:34;;;;;;;11.77;4.60;;;11.40;99.90;;;;;;5024818;28;20297;-52
2022/05/14 04:02:03;;;;;;;8.70;3.97;;;11.40;99.90;;;;;;5024427;28;20635;-52
2022/05/14 04:04:30;;;;;;;8.13;3.90;;;11.30;99.90;;;;;;5019413;28;20603;-52
2022/05/14 04:06:58;;;;;;;7.57;4.40;;;11.30;99.90;;;;;;5028675;28;20198;-51
2022/05/14 04:09:25;;;;;;;9.40;4.27;;;11.40;99.90;;;;;;5022442;28;20611;-50
2022/05/14 04:11:53;;;;;;;9.60;4.40;;;11.40;99.90;;;;;;5028513;28;20235;-52
2022/05/14 04:14:22;;;;;;;11.90;4.70;;;11.10;99.90;;;;;;5025534;28;20202;-52
2022/05/14 04:16:49;;;;;;;7.40;4.70;;;11.10;99.90;;;;;;5026416;28;20227;-54
2022/05/14 04:19:18;;;;;;;6.70;4.40;;;11.10;99.90;;;;;;5027615;28;20225;-52
2022/05/14 04:21:46;;;;;;;10.20;4.63;;;11.10;99.90;;;;;;5020864;28;20323;-52
2022/05/14 04:24:12;;;;;;;8.10;4.77;;;11.10;99.90;;;;;;5028396;28;20292;-52
2022/05/14 04:26:39;;;;;;;9.33;4.83;;;11.20;99.90;;;;;;5028820;28;20314;-53
2022/05/14 04:29:06;;;;;;;11.20;5.07;;;11.40;99.90;;;;;;5030378;28;22098;-51
2022/05/14 04:31:33;;;;;;;11.50;4.77;;;11.10;99.90;;;;;;5027661;28;20322;-51
2022/05/14 04:34:00;;;;;;;12.00;6.30;;;11.00;99.90;;;;;;5032381;28;20205;-52
2022/05/14 04:36:27;;;;;;;11.70;6.03;;;11.00;99.90;;;;;;5028752;28;20236;-52
2022/05/14 04:38:54;;;;;;;15.13;5.23;;;11.00;99.90;;;;;;5034974;28;20617;-53
2022/05/14 04:41:21;;;;;;;9.93;5.87;;;11.00;99.90;;;;;;5033202;28;20655;-53
2022/05/14 04:43:47;;;;;;;11.00;5.73;;;11.20;99.90;;;;;;5033941;28;20237;-53
2022/05/14 04:46:14;;;;;;;13.83;5.97;;;11.10;99.90;;;;;;5018801;28;20209;-52
2022/05/14 04:48:41;;;;;;;10.00;5.20;;;11.10;99.90;;;;;;5036791;28;20288;-52
2022/05/14 04:51:08;;;;;;;9.93;6.00;;;11.20;99.90;;;;;;5019958;28;20216;-53
2022/05/14 04:53:35;;;;;;;11.50;5.93;;;11.10;99.90;;;;;;5027287;28;20197;-52
2022/05/14 04:56:02;;;;;;;11.17;5.67;;;11.10;99.90;;;;;;5026254;28;20658;-52
2022/05/14 04:58:28;;;;;;;10.43;6.13;;;11.10;99.90;;;;;;5026183;28;20243;-56
2022/05/14 05:00:56;;;;;;;10.70;6.33;;;11.10;99.90;;;;;;5021028;28;20215;-51
2022/05/14 05:03:24;;;;;;;14.70;6.40;;;11.10;99.90;;;;;;5024354;28;20855;-53
2022/05/14 05:06:00;;;;;;;12.13;6.30;;;11.10;99.90;;;;;;5025812;28;20658;-52
2022/05/14 05:08:30;;;;;;;13.30;6.30;;;11.10;99.90;;;;;;5035041;28;20304;-52
2022/05/14 05:10:58;;;;;;;13.53;6.53;;;11.20;99.90;;;;;;5029809;28;20652;-53
2022/05/14 05:13:28;;;;;;;14.00;7.57;;;11.10;99.90;;;;;;5025842;28;20287;-52
2022/05/14 05:15:55;;;;;;;13.13;5.97;;;11.20;99.90;;;;;;5022767;28;20238;-53
2022/05/14 05:18:22;;;;;;;15.07;6.20;;;11.10;99.90;;;;;;5023893;28;20216;-52
2022/05/14 05:20:52;;;;;;;13.70;7.27;;;11.20;99.90;;;;;;5023397;28;20241;-52
2022/05/14 05:23:21;;;;;;;15.53;6.60;;;11.40;99.90;;;;;;5023667;28;20234;-52
2022/05/14 05:25:49;;;;;;;13.67;6.70;;;11.60;99.90;;;;;;5032512;28;20199;-52
2022/05/14 05:28:16;;;;;;;13.97;6.57;;;11.60;99.90;;;;;;5022747;28;20238;-52
2022/05/14 05:30:43;;;;;;;13.70;6.60;;;11.50;99.90;;;;;;5023914;28;20251;-52
2022/05/14 05:33:17;;;;;;;14.27;7.17;;;11.60;99.90;;;;;;5018043;28;20496;-54
2022/05/14 05:35:44;;;;;;;15.70;7.33;;;11.80;99.90;;;;;;5023295;28;20310;-53
2022/05/14 05:38:11;;;;;;;15.33;7.10;;;12.00;99.90;;;;;;5027062;28;20270;-53
2022/05/14 05:40:38;;;;;;;11.07;6.50;;;11.90;99.90;;;;;;5025607;28;20203;-53
2022/05/14 05:43:06;;;;;;;15.33;7.40;;;12.00;99.90;;;;;;5025113;28;20208;-53
2022/05/14 05:45:33;;;;;;;14.30;6.93;;;11.90;99.90;;;;;;5029559;28;20197;-52
2022/05/14 05:48:00;;;;;;;11.17;7.33;;;12.00;99.90;;;;;;5030392;28;20651;-52
2022/05/14 05:50:27;;;;;;;15.13;7.30;;;12.00;99.90;;;;;;5025435;28;20204;-52
2022/05/14 05:52:54;;;;;;;13.60;7.40;;;12.10;99.90;;;;;;5028554;28;20209;-54
2022/05/14 05:58:07;;;;;;;23.90;8.23;;;12.30;99.90;;;;;;5028554;28;20660;-53
2022/05/14 06:00:36;;;;;;;13.60;7.70;;;12.30;99.90;;;;;;5022168;28;20236;-53
2022/05/14 06:03:03;;;;;;;14.67;7.27;;;12.40;99.90;;;;;;5026011;28;20209;-53
2022/05/14 06:05:36;;;;;;;18.23;7.40;;;12.40;99.90;;;;;;5036230;28;20203;-54
2022/05/14 06:08:12;;;;;;;18.90;8.10;;;12.50;99.90;;;;;;5028796;28;20281;-53
2022/05/14 06:10:41;;;;;;;12.53;7.20;;;12.50;99.90;;;;;;5025574;28;20562;-51
2022/05/14 06:13:12;;;;;;;16.60;6.97;;;12.50;99.90;;;;;;5031491;28;20691;-54
2022/05/14 06:15:39;;;;;;;19.57;8.77;;;12.50;99.90;;;;;;5029270;28;20193;-53
2022/05/14 06:18:07;;;;;;;15.17;8.10;;;12.60;99.90;;;;;;5015887;28;20232;-52
2022/05/14 06:20:37;;;;;;;15.43;8.17;;;12.80;99.90;;;;;;5031492;28;20196;-54
2022/05/14 06:23:04;;;;;;;14.80;7.90;;;12.90;99.90;;;;;;5029553;28;20368;-52
2022/05/14 06:25:31;;;;;;;15.13;7.23;;;13.00;99.90;;;;;;5024750;28;20209;-51
2022/05/14 06:27:58;;;;;;;18.10;8.77;;;12.90;99.90;;;;;;5029572;28;20232;-51
2022/05/14 06:30:25;;;;;;;15.77;8.23;;;12.90;99.90;;;;;;5029759;28;20235;-53
2022/05/14 06:32:52;;;;;;;22.63;8.60;;;13.20;99.90;;;;;;5026358;28;20207;-52
2022/05/14 06:35:18;;;;;;;18.80;8.10;;;13.20;99.90;;;;;;5019379;28;20291;-52
2022/05/14 06:37:45;;;;;;;17.87;8.23;;;13.50;99.90;;;;;;5020490;28;20209;-53
2022/05/14 06:40:12;;;;;;;16.53;7.90;;;13.70;99.90;;;;;;5022738;28;20243;-53
2022/05/14 06:42:39;;;;;;;19.07;8.10;;;13.80;99.90;;;;;;5022876;28;20395;-52
2022/05/14 06:45:07;;;;;;;19.20;8.20;;;14.00;99.90;;;;;;5016300;28;20205;-52
2022/05/14 06:47:35;;;;;;;21.70;8.07;;;14.10;99.90;;;;;;5026450;28;20261;-53
2022/05/14 06:50:03;;;;;;;18.37;8.03;;;14.30;99.90;;;;;;5020570;28;20205;-54
2022/05/14 06:52:31;;;;;;;20.03;9.13;;;14.60;99.90;;;;;;5018482;28;20224;-54
2022/05/14 06:55:00;;;;;;;20.03;7.83;;;14.50;99.90;;;;;;5027885;28;20279;-53
2022/05/14 06:57:29;;;;;;;18.27;8.17;;;14.50;99.90;;;;;;5033652;28;20677;-52
2022/05/14 06:59:56;;;;;;;14.63;7.77;;;14.70;99.90;;;;;;5027760;28;20658;-53
2022/05/14 07:02:25;;;;;;;18.73;10.07;;;14.80;99.90;;;;;;5032887;28;20300;-53
2022/05/14 07:07:38;;;;;;;16.43;8.30;;;15.10;99.90;;;;;;5034016;28;20203;-53
2022/05/14 07:10:05;;;;;;;19.93;7.80;;;15.10;99.90;;;;;;5029552;28;20242;-52
2022/05/14 07:12:33;;;;;;;20.03;7.80;;;15.20;99.90;;;;;;5031915;28;20592;-52
2022/05/14 07:15:01;;;;;;;14.40;7.27;;;15.30;99.90;;;;;;5026889;28;20522;-53
2022/05/14 07:17:29;;;;;;;15.47;7.53;;;15.30;99.90;;;;;;5031984;28;20227;-52
2022/05/14 07:19:55;;;;;;;20.13;7.90;;;15.40;99.90;;;;;;5011099;28;20582;-52
2022/05/14 07:22:22;;;;;;;18.77;7.93;;;15.70;99.90;;;;;;5040298;28;20353;-52
2022/05/14 07:24:49;;;;;;;19.37;8.57;;;16.10;99.90;;;;;;5031363;28;20651;-51
2022/05/14 07:27:17;;;;;;;17.90;7.60;;;16.00;99.90;;;;;;5034254;28;20298;-53
2022/05/14 07:29:45;;;;;;;16.23;7.80;;;16.10;99.90;;;;;;5035326;28;20250;-52
2022/05/14 07:32:13;;;;;;;17.97;7.67;;;16.00;99.90;;;;;;5030205;28;20295;-53
2022/05/14 07:34:41;;;;;;;16.07;8.60;;;16.30;99.90;;;;;;5031410;28;20586;-52
2022/05/14 07:37:16;;;;;;;16.23;8.47;;;16.20;99.90;;;;;;5036017;28;20612;-53
2022/05/14 07:39:54;;;;;;;20.53;7.80;;;16.10;99.90;;;;;;5033397;28;20202;-53
2022/05/14 07:42:44;;;;;;;17.80;10.47;;;16.00;99.90;;;;;;5026560;28;20330;-53
2022/05/14 07:45:18;;;;;;;19.67;7.90;;;16.30;99.90;;;;;;5030007;28;20241;-53
2022/05/14 07:47:46;;;;;;;15.17;7.27;;;16.60;99.90;;;;;;5035444;28;20254;-53
2022/05/14 07:50:13;;;;;;;15.43;7.13;;;16.70;99.90;;;;;;5029155;28;20245;-53
2022/05/14 07:52:41;;;;;;;15.10;7.60;;;16.50;99.90;;;;;;5028522;28;20205;-52
2022/05/14 07:55:09;;;;;;;17.57;7.47;;;16.60;99.90;;;;;;5021238;28;20297;-52
2022/05/14 07:57:37;;;;;;;15.33;7.23;;;17.00;99.90;;;;;;5034238;28;20345;-53
2022/05/14 08:00:05;;;;;;;17.47;7.80;;;17.20;99.90;;;;;;5032460;28;20201;-53
2022/05/14 08:02:34;;;;;;;14.80;7.27;;;17.40;99.90;;;;;;5029580;28;20310;-52
2022/05/14 08:05:04;;;;;;;13.63;7.47;;;17.10;99.90;;;;;;5020285;28;20234;-52
2022/05/14 08:07:31;;;;;;;15.67;7.00;;;17.30;99.90;;;;;;5027669;28;20346;-52
2022/05/14 08:09:59;;;;;;;15.37;7.53;;;17.20;99.90;;;;;;5014527;28;20199;-53
2022/05/14 08:12:33;;;;;;;12.43;6.83;;;17.40;99.90;;;;;;5031316;28;20203;-52
2022/05/14 08:14:59;;;;;;;12.27;6.23;;;17.60;99.90;;;;;;5027818;28;20230;-51
2022/05/14 08:17:27;;;;;;;14.60;7.33;;;18.00;99.90;;;;;;5016437;28;20209;-53
2022/05/14 08:19:54;;;;;;;12.27;6.20;;;18.00;99.90;;;;;;5020795;28;20205;-53
2022/05/14 08:25:07;;;;;;;9.17;5.43;;;18.00;99.90;;;;;;5025859;28;20334;-52
2022/05/14 08:27:44;;;;;;;12.40;5.13;;;18.20;99.90;;;;;;5023684;28;20236;-52
2022/05/14 08:30:11;;;;;;;13.40;5.10;;;18.60;99.90;;;;;;5029020;28;20325;-52
2022/05/14 08:32:38;;;;;;;15.37;5.23;;;18.50;99.90;;;;;;5032179;28;20224;-52
2022/05/14 08:35:05;;;;;;;9.53;5.73;;;18.40;99.90;;;;;;5015252;28;20378;-52
2022/05/14 08:37:32;;;;;;;13.97;4.90;;;18.60;99.90;;;;;;5028921;28;20229;-52
2022/05/14 08:40:04;;;;;;;9.07;5.03;;;18.90;99.90;;;;;;5026267;28;20232;-52
2022/05/14 08:42:33;;;;;;;10.73;4.50;;;18.70;99.90;;;;;;5024519;28;20267;-53
2022/05/14 08:45:01;;;;;;;15.57;5.10;;;19.10;99.90;;;;;;5032068;28;20308;-52
2022/05/14 08:47:36;;;;;;;13.33;5.30;;;19.20;99.90;;;;;;5029208;28;20879;-53
2022/05/14 08:50:06;;;;;;;13.73;6.23;;;19.20;99.90;;;;;;5022552;28;20273;-52
2022/05/14 08:52:34;;;;;;;17.60;6.70;;;19.40;99.90;;;;;;5025712;28;20226;-53
2022/05/14 08:55:09;;;;;;;13.40;5.47;;;19.20;99.90;;;;;;5024669;28;20304;-52
2022/05/14 08:58:13;;;;;;;10.97;5.43;;;19.70;99.90;;;;;;5032425;28;20289;-52
2022/05/14 09:00:40;;;;;;;10.20;5.37;;;20.10;99.90;;;;;;5025202;28;20240;-53
2022/05/14 09:03:06;;;;;;;17.57;5.53;;;19.80;99.90;;;;;;5027634;28;20315;-53
2022/05/14 09:05:37;;;;;;;12.13;5.77;;;20.10;99.90;;;;;;5031919;28;20284;-51
2022/05/14 09:08:04;;;;;;;15.10;5.83;;;19.90;99.90;;;;;;5027442;28;20204;-53
2022/05/14 09:10:41;;;;;;;17.30;5.97;;;19.60;99.90;;;;;;5032017;28;20234;-52
2022/05/14 09:13:21;;;;;;;14.37;6.03;;;20.10;99.90;;;;;;5020964;28;20437;-52
2022/05/14 09:15:55;;;;;;;17.73;6.47;;;20.50;99.90;;;;;;5025876;28;20212;-52
2022/05/14 09:18:32;;;;;;;13.77;5.63;;;20.50;99.90;;;;;;5031252;28;20215;-53
2022/05/14 09:21:06;;;;;;;14.03;6.47;;;20.60;99.90;;;;;;5029293;28;20252;-53
2022/05/14 09:23:42;;;;;;;10.40;6.40;;;20.20;99.90;;;;;;5021836;28;20242;-52
2022/05/14 09:26:18;;;;;;;18.10;7.17;;;20.50;99.90;;;;;;5028022;28;20199;-51
2022/05/14 09:28:57;;;;;;;14.20;6.90;;;20.10;99.90;;;;;;5027830;28;20200;-53
2022/05/14 09:31:32;;;;;;;10.80;6.57;;;20.10;99.90;;;;;;5027681;28;20272;-53
2022/05/14 09:34:20;;;;;;;12.03;6.20;;;20.20;99.90;;;;;;5033395;28;20293;-53
2022/05/14 09:36:50;;;;;;;12.57;6.40;;;20.40;99.90;;;;;;5034386;28;20307;-52
2022/05/14 09:39:22;;;;;;;12.70;6.50;;;20.40;99.90;;;;;;5030836;28;20228;-53
2022/05/14 09:41:49;;;;;;;14.53;6.80;;;19.50;99.90;;;;;;5022846;28;20238;-54
2022/05/14 09:44:19;;;;;;;14.73;6.40;;;19.40;99.90;;;;;;5027825;28;20233;-53
2022/05/14 09:46:47;;;;;;;11.73;6.23;;;19.70;99.90;;;;;;5022043;28;20192;-53
2022/05/14 09:49:24;;;;;;;14.47;6.80;;;20.00;99.90;;;;;;5022719;28;20199;-51
2022/05/14 09:52:15;;;;;;;14.07;6.37;;;20.10;99.90;;;;;;5019949;28;20200;-55
2022/05/14 09:54:49;;;;;;;9.87;6.03;;;19.90;99.90;;;;;;5020644;28;20286;-53
2022/05/14 09:57:42;;;;;;;10.53;6.60;;;20.10;99.90;;;;;;5026784;28;20234;-52
2022/05/14 10:00:16;;;;;;;15.57;6.37;;;20.20;99.90;;;;;;5020141;28;20303;-52
2022/05/14 10:03:27;;;;;;;14.27;6.13;;;20.00;99.90;;;;;;5014290;28;20233;-53
2022/05/14 10:06:10;;;;;;;12.67;5.67;;;19.60;99.90;;;;;;5016579;28;20198;-52
2022/05/14 10:08:46;;;;;;;12.10;5.93;;;19.40;99.90;;;;;;5038465;28;20658;-52
2022/05/14 10:11:24;;;;;;;12.87;5.67;;;19.50;99.90;;;;;;5023935;28;20338;-53
2022/05/14 10:14:20;;;;;;;13.63;5.63;;;19.60;99.90;;;;;;5021790;28;20254;-53
2022/05/14 10:16:58;;;;;;;14.63;5.77;;;19.40;99.90;;;;;;5019898;28;20237;-52
2022/05/14 10:19:50;;;;;;;17.40;5.90;;;19.20;99.90;;;;;;5018575;28;20281;-52
2022/05/14 10:22:22;;;;;;;15.93;6.10;;;19.70;99.90;;;;;;5026231;28;20242;-53
2022/05/14 10:27:58;;;;;;;16.43;6.10;;;20.40;99.90;;;;;;5025814;28;20287;-52
2022/05/14 10:30:37;;;;;;;13.50;5.87;;;20.50;99.90;;;;;;5030225;28;20637;-52
2022/05/14 10:33:07;;;;;;;11.50;5.53;;;20.40;99.90;;;;;;5029381;28;20209;-53
2022/05/14 10:35:50;;;;;;;8.30;5.30;;;20.50;99.90;;;;;;5029513;28;20610;-52
2022/05/14 10:38:44;;;;;;;13.47;4.90;;;20.40;99.90;;;;;;5036045;28;20301;-53
2022/05/14 10:41:11;;;;;;;11.63;5.00;;;20.90;99.90;;;;;;5027160;28;20295;-53
2022/05/14 10:43:49;;;;;;;14.00;5.30;;;20.80;99.90;;;;;;5027986;28;22232;-52
2022/05/14 10:46:19;;;;;;;12.47;6.73;;;20.70;99.90;;;;;;5033245;28;20203;-54
2022/05/14 10:48:49;;;;;;;9.57;5.10;;;20.90;99.90;;;;;;5034921;28;20204;-53
2022/05/14 10:51:43;;;;;;;12.00;4.37;;;20.70;99.90;;;;;;5028797;28;20668;-53
2022/05/14 10:54:16;;;;;;;16.50;5.27;;;20.50;99.90;;;;;;5028782;28;20199;-53
2022/05/14 10:56:56;;;;;;;11.47;5.03;;;20.60;99.90;;;;;;5031652;28;20364;-53
2022/05/14 10:59:40;;;;;;;9.40;3.77;;;20.60;99.90;;;;;;5021047;28;20656;-53
2022/05/14 11:02:24;;;;;;;9.70;3.97;;;20.70;99.90;;;;;;5029664;28;20238;-53
2022/05/14 11:04:51;;;;;;;8.70;4.20;;;20.90;99.90;;;;;;5025014;28;20273;-52
2022/05/14 11:07:29;;;;;;;9.77;4.10;;;20.90;99.90;;;;;;5029457;28;20196;-52
2022/05/14 11:10:07;;;;;;;11.90;3.80;;;21.10;99.90;;;;;;5024250;28;20191;-52
2022/05/14 11:12:34;;;;;;;10.50;4.20;;;21.40;99.90;;;;;;5024855;28;20246;-53
2022/05/14 11:15:04;;;;;;;9.97;4.23;;;21.60;99.90;;;;;;5018884;28;20209;-52
2022/05/14 11:17:39;;;;;;;7.67;3.57;;;21.70;99.90;;;;;;5019941;28;20206;-54
2022/05/14 11:20:11;;;;;;;10.73;3.73;;;22.20;99.90;;;;;;5022284;28;20209;-54
2022/05/14 11:22:39;;;;;;;9.30;4.03;;;22.30;99.90;;;;;;5025105;28;20592;-53
2022/05/14 11:25:21;;;;;;;10.00;4.40;;;22.20;99.90;;;;;;5022615;28;20707;-52
2022/05/14 11:28:17;;;;;;;13.30;5.03;;;22.30;99.90;;;;;;5019073;28;20251;-53
2022/05/14 11:30:45;;;;;;;10.30;4.17;;;21.90;99.90;;;;;;5029007;28;20192;-53
2022/05/14 11:33:31;;;;;;;8.07;3.67;;;22.50;99.90;;;;;;5032763;28;20556;-52
2022/05/14 11:36:17;;;;;;;7.47;3.30;;;22.90;99.90;;;;;;5022427;28;20204;-52
2022/05/14 11:38:51;;;;;;;7.80;3.47;;;23.50;99.90;;;;;;5027306;28;20278;-53
2022/05/14 11:41:29;;;;;;;13.17;4.47;;;23.80;99.90;;;;;;5029035;28;20201;-53
2022/05/14 11:43:56;;;;;;;12.50;4.43;;;23.50;99.90;;;;;;5032441;28;20213;-53
2022/05/14 11:46:44;;;;;;;8.30;3.53;;;23.10;99.90;;;;;;5031303;28;20271;-53
2022/05/14 11:49:29;;;;;;;6.40;3.13;;;23.60;99.90;;;;;;5026665;28;20637;-53
2022/05/14 11:52:22;;;;;;;6.63;3.70;;;24.00;99.90;;;;;;5033411;28;20296;-53
2022/05/14 11:55:33;;;;;;;6.73;3.33;;;24.10;99.90;;;;;;5022083;28;20705;-53
2022/05/14 11:58:07;;;;;;;13.80;4.57;;;24.70;99.90;;;;;;4992548;28;20807;-53
2022/05/14 12:00:34;;;;;;;7.10;3.57;;;24.50;99.90;;;;;;4998451;28;20243;-52
2022/05/14 12:03:32;;;;;;;10.87;3.40;;;24.80;99.90;;;;;;5013617;28;20322;-53
2022/05/14 12:06:09;;;;;;;11.40;3.50;;;24.80;99.90;;;;;;5018328;28;20207;-52
2022/05/14 12:09:05;;;;;;;8.03;3.97;;;24.20;99.90;;;;;;5020458;28;20231;-54
2022/05/14 12:11:35;;;;;;;11.60;4.80;;;23.80;99.90;;;;;;5020521;28;20633;-54
2022/05/14 12:14:07;;;;;;;10.83;4.13;;;24.40;99.90;;;;;;5021030;28;20648;-52
2022/05/14 12:16:36;;;;;;;12.40;4.03;;;23.70;99.90;;;;;;5022364;28;20294;-53
2022/05/14 12:19:14;;;;;;;9.83;3.57;;;24.00;99.90;;;;;;5021487;28;20791;-52
2022/05/14 12:21:43;;;;;;;10.57;3.43;;;23.80;99.90;;;;;;5018254;28;20551;-53
2022/05/14 12:24:22;;;;;;;9.67;4.00;;;23.40;99.90;;;;;;5017123;28;20319;-57
2022/05/14 12:26:49;;;;;;;7.10;3.90;;;23.00;99.90;;;;;;5021993;28;20662;-55
2022/05/14 12:29:29;;;;;;;9.30;3.70;;;23.30;99.90;;;;;;5023294;28;20361;-54
2022/05/14 12:34:45;;;;;;;9.30;3.40;;;23.10;99.90;;;;;;5014984;28;20355;-52
2022/05/14 12:37:21;;;;;;;10.50;4.38;;;23.90;99.90;;;;;;5017719;28;21118;-55
2022/05/14 12:39:51;;;;;;;10.43;4.77;;;24.20;99.90;;;;;;5012852;28;20274;-54
2022/05/14 12:42:34;;;;;;;12.47;4.00;;;24.00;99.90;;;;;;5016953;28;20197;-55
2022/05/14 12:45:04;;;;;;;8.80;3.63;;;23.20;99.90;;;;;;5022772;28;20204;-54
2022/05/14 12:47:34;;;;;;;9.30;4.10;;;23.30;99.90;;;;;;5028986;28;20231;-59
2022/05/14 12:50:01;;;;;;;11.60;4.00;;;23.30;99.90;;;;;;5026481;28;20229;-53
2022/05/14 12:52:33;;;;;;;6.20;3.07;;;24.60;99.90;;;;;;5029545;28;20254;-54
2022/05/14 12:55:05;;;;;;;10.73;3.70;;;25.60;99.90;;;;;;5028302;28;20197;-57
2022/05/14 12:57:36;;;;;;;7.93;4.00;;;24.50;99.90;;;;;;5028737;28;20251;-55
2022/05/14 13:00:05;;;;;;;8.43;3.83;;;24.30;99.90;;;;;;5017240;28;20287;-57
2022/05/14 13:02:36;;;;;;;7.07;3.53;;;24.70;99.90;;;;;;5030109;28;20205;-55
2022/05/14 13:05:07;;;;;;;8.10;3.13;;;24.80;99.90;;;;;;5027453;28;20256;-55
2022/05/14 13:07:54;;;;;;;9.23;3.50;;;26.30;99.90;;;;;;5030249;28;20297;-55
2022/05/14 13:10:29;;;;;;;10.77;4.67;;;26.50;99.90;;;;;;5026316;28;20701;-57
2022/05/14 13:13:02;;;;;;;10.83;4.53;;;25.30;99.90;;;;;;5027605;28;20292;-57
2022/05/14 13:15:45;;;;;;;7.97;3.40;;;24.70;99.90;;;;;;5026269;28;20251;-54
2022/05/14 13:18:20;;;;;;;10.73;4.00;;;23.80;99.90;;;;;;5028498;28;20240;-54